• Join FlightAware (Why Join?)
  • Login
  • US Flag 
11:30AM EDT


 

Airport Tracker/Info


-or-


 

Live Flight TrackerFlight Track Log ✈ EGF3755 ✈ 06-May-2013 ✈ KORD - KSLC

Flight Track Log - Related Links

Times and Time Zones

All times are in EDT time to prevent confusion due to time zone crossing. See the EGF3755 flight status page for this flight to view local times or setup timezone preferences in your user account.

Time Position Orientation Groundspeed Altitude Reporting Facility
EDT Latitude Longitude Course Direction KTS MPH feet Rate Location/Type
03:02PM 42.0686 -88.0014 261° West 217 250 3,900  Level Chicago Center
03:03PM 41.9295 -88.3526 255° West  Level FlightAware Approximate
03:04PM 42.0770 -88.1658 257° West  Level Estimated
03:04PM 41.9123 -88.5040 261° West  Level FlightAware Approximate
03:05PM 41.8944 -88.6562 261° West  Level FlightAware Approximate
03:06PM 41.8767 -88.8084 261° West  Level FlightAware Approximate
03:07PM 41.8592 -88.9607 261° West  Level FlightAware Approximate
03:08PM 41.8416 -89.1128 261° West  Level FlightAware Approximate
03:08PM 41.9753 -88.5242 229° Southwest 357 411 14,000  Level Chicago Center
03:10PM 41.9072 -88.8278 253° West 394 453 16,000 1,200 Climbing Chicago Center
03:11PM 42.1262 -89.2458 260° West  Level Estimated
03:11PM 41.8858 -88.9669 258° West 387 445 17,900  Level Chicago Center
03:12PM 42.0516 -89.3633 229° Southwest  Level FlightAware Approximate
03:12PM 41.8619 -89.1061 257° West 386 444 19,800  Level Chicago Center
03:13PM 41.9769 -89.4804 229° Southwest  Level FlightAware Approximate
03:13PM 41.8358 -89.2467 256° West 392 451 21,300  Level Chicago Center
03:14PM 41.8022 -89.4175 255° West 397 457 23,000 1,440 Climbing Chicago Center
03:15PM 41.7733 -89.5628 255° West 404 465 24,300 1,080 Climbing Chicago Center
03:17PM 41.7867 -89.8149 270° West  Level Estimated
03:18PM 41.7672 -90.0453 270° West 433 498 27,500  Level Chicago Center
03:19PM 41.7647 -90.2072 269° West 437 503 28,500 1,020 Climbing Chicago Center
03:21PM 41.7760 -90.4364 270° West  Level Estimated
03:21PM 41.7567 -90.5700 270° West 440 506 30,700  Level Chicago Center
03:22PM 41.7533 -90.7258 268° West 441 507 31,600 840 Climbing Chicago Center
03:24PM 41.7634 -90.9423 267° West  Level Estimated
03:25PM 41.7364 -91.2511 268° West 444 511 34,200  Level Chicago Center
03:26PM 41.7225 -91.4150 264° West 446 513 34,900 660 Climbing Chicago Center
03:27PM 41.7164 -91.5797 267° West 446 513 35,600 300 Climbing Chicago Center
03:29PM 41.7095 -91.7690 267° West  Level FlightAware Approximate
03:29PM 41.7067 -91.9128 267° West 453 521 36,000  Level Chicago Center
03:30PM 41.6989 -92.1172 267° West 460 529 36,000  Level Chicago Center
03:31PM 41.7614 -92.0187 268° West  Level FlightAware Approximate
03:31PM 41.6936 -92.2967 268° West 476 548 36,000  Level Chicago Center
03:32PM 41.6872 -92.4756 267° West 481 554 36,000 420 Level Chicago Center
03:34PM 41.6739 -92.7365 266° West  Level FlightAware Approximate
03:36PM 41.6678 -92.9969 268° West 452 520 37,900  Level Chicago Center
03:36PM 41.6653 -93.0658 267° West 455 524 38,000 60 Climbing Minneapolis Center
03:37PM 41.6572 -93.2297 266° West 451 519 38,000  Level Minneapolis Center
03:38PM 41.6492 -93.4303 267° West 453 521 38,000  Level Minneapolis Center
03:40PM 41.6364 -93.6936 266° West 453 521 38,000  Level Chicago Center
03:41PM 41.6218 -93.8214 268° West  Level FlightAware Approximate
03:41PM 41.6292 -93.8581 267° West 449 517 38,000  Level Chicago Center
03:42PM 41.6206 -94.0250 266° West 453 521 38,000  Level Chicago Center
03:42PM 41.6194 -94.0875 269° West 452 520 38,000  Level Minneapolis Center
03:43PM 41.6100 -94.2814 266° West 451 519 38,000  Level Minneapolis Center
03:44PM 41.6008 -94.4489 266° West 452 520 38,000  Level Minneapolis Center
03:45PM 41.5914 -94.6139 266° West 448 516 38,000  Level Minneapolis Center
03:46PM 41.5806 -94.7803 265° West 450 518 38,000  Level Minneapolis Center
03:47PM 41.5700 -94.9433 265° West 446 513 38,000  Level Minneapolis Center
03:48PM 41.5625 -95.1047 266° West 439 505 38,000  Level Minneapolis Center
03:49PM 41.5506 -95.3028 265° West 445 512 38,000  Level Minneapolis Center
03:50PM 41.5400 -95.4675 265° West 448 516 38,000  Level Minneapolis Center
03:51PM 41.5294 -95.6294 265° West 443 510 38,000  Level Minneapolis Center
03:53PM 41.5164 -95.8032 264° West  Level FlightAware Approximate
03:53PM 41.5083 -95.9619 264° West 441 507 38,000  Level Minneapolis Center
03:54PM 41.4986 -96.1242 265° West 442 509 38,000  Level Minneapolis Center
03:55PM 41.4864 -96.2869 264° West 442 509 38,000  Level Minneapolis Center
03:57PM 41.4736 -96.4650 265° West 439 505 38,000  Level Minneapolis Center
03:58PM 41.4617 -96.6267 264° West 441 507 38,000  Level Minneapolis Center
03:59PM 41.4503 -96.7883 265° West 440 506 38,000  Level Minneapolis Center
04:00PM 41.4375 -96.9503 264° West 440 506 38,000  Level Minneapolis Center
04:01PM 41.4228 -97.1439 264° West 439 505 38,000  Level Minneapolis Center
04:03PM 41.3975 -97.4664 264° West 438 504 38,000  Level Minneapolis Center
04:04PM 41.3761 -97.7436 264° West 438 504 38,000  Level Denver Center
04:05PM 41.3719 -97.7881 263° West 438 504 38,000  Level Minneapolis Center
04:06PM 41.3486 -98.0650 264° West 437 503 38,000  Level Denver Center
04:07PM 41.3344 -98.2247 263° West 436 502 38,000  Level Denver Center
04:08PM 41.3292 -98.2883 264° West 436 502 38,000  Level Minneapolis Center
04:10PM 41.3039 -98.5733 263° West 433 498 38,000  Level Denver Center
04:10PM 41.3033 -98.5867 267° West 434 499 38,000  Level Minneapolis Center
04:11PM 41.2844 -98.7769 263° West 433 498 38,000  Level Minneapolis Center
04:12PM 41.2758 -98.8861 264° West 430 495 38,000  Level Denver Center
04:13PM 41.2611 -99.0364 263° West 429 494 38,000  Level Denver Center
04:14PM 41.2467 -99.1928 263° West 428 493 38,000  Level Denver Center
04:15PM 41.2286 -99.3794 263° West 427 491 38,000  Level Denver Center
04:17PM 41.1983 -99.6828 263° West 426 490 38,000  Level Denver Center
04:18PM 41.1811 -99.8558 263° West 424 488 38,000  Level Denver Center
04:19PM 41.1658 -100.0042 262° West 425 489 38,000  Level Denver Center
04:21PM 41.1376 -100.2596 262° West  Level FlightAware Approximate
04:21PM 41.1283 -100.3725 262° West 424 488 38,000  Level Minneapolis Center
04:22PM 41.1147 -100.4956 262° West 423 487 38,000  Level Denver Center
04:23PM 41.0986 -100.6422 262° West 423 487 38,000  Level Denver Center
04:24PM 41.0811 -100.8119 262° West 422 486 38,000  Level Denver Center
04:25PM 41.0642 -100.9581 261° West 424 488 38,000  Level Denver Center
04:26PM 41.0475 -101.1042 261° West 424 488 38,000  Level Denver Center
04:28PM 41.0120 -101.3263 262° West  Level FlightAware Approximate
04:28PM 41.0108 -101.4219 262° West 424 488 38,000  Level Denver Center
04:30PM 40.9689 -101.7889 262° West 426 490 38,000  Level Salt Lake Center
04:31PM 40.9508 -101.9367 261° West 425 489 38,000  Level Salt Lake Center
04:32PM 40.9350 -102.0633 261° West 427 491 38,000  Level Denver Center
04:33PM 40.9142 -102.2364 261° West 428 493 38,000  Level Denver Center
04:34PM 40.8953 -102.3847 260° West 428 493 38,000  Level Denver Center
04:35PM 40.8781 -102.5339 261° West 429 494 38,000  Level Denver Center
04:36PM 40.8550 -102.7044 260° West 425 489 38,000  Level Denver Center
04:37PM 40.8375 -102.8531 261° West 427 491 38,000  Level Denver Center
04:39PM 40.7953 -103.1717 260° West 429 494 38,000  Level Denver Center
04:40PM 40.7747 -103.3289 260° West 433 498 38,000  Level Denver Center
04:41PM 40.7503 -103.5103 260° West 429 494 38,000  Level Denver Center
04:42PM 40.7283 -103.6678 260° West 432 497 38,000  Level Denver Center
04:43PM 40.7083 -103.8242 260° West 431 496 38,000  Level Denver Center
04:45PM 40.6858 -103.9825 259° West 437 503 38,000  Level Denver Center
04:46PM 40.6669 -104.1181 260° West 453 521 38,000  Level Denver Center
04:48PM 40.6194 -104.4594 260° West 436 502 38,000  Level Denver Center
04:49PM 40.5964 -104.6175 259° West 436 502 38,000  Level Denver Center
04:51PM 40.5467 -104.9608 259° West 438 504 38,000  Level Denver Center
04:52PM 40.5225 -105.1181 259° West 438 504 38,000  Level Denver Center
04:54PM 40.4750 -105.4336 259° West 440 506 38,000  Level Denver Center
04:56PM 40.4377 -105.6747 259° West  Level FlightAware Approximate
04:57PM 40.3964 -105.9328 258° West 442 509 38,000  Level Salt Lake Center
04:58PM 40.3764 -106.0678 259° West 442 509 38,000  Level Denver Center
04:59PM 40.3467 -106.2536 258° West 444 511 38,000  Level Denver Center
05:01PM 40.2978 -106.5592 258° West 446 513 38,000  Level Denver Center
05:02PM 40.2722 -106.7175 258° West 445 512 38,000  Level Denver Center
05:03PM 40.2721 -106.7048 258° West  Level FlightAware Approximate
05:04PM 40.2139 -107.0631 258° West 445 512 38,000  Level Salt Lake Center
05:05PM 40.1892 -107.2142 258° West 446 513 38,000  Level Denver Center
05:06PM 40.1594 -107.3911 258° West 446 513 38,000  Level Denver Center
05:07PM 40.1339 -107.5433 258° West 447 514 38,000  Level Denver Center
05:09PM 40.0769 -107.8722 257° West 449 517 38,000  Level Denver Center
05:10PM 40.0725 -108.0275 268° West 456 525 38,000  Level Denver Center
05:11PM 40.0811 -108.2078 274° West 449 517 38,000  Level Denver Center
05:13PM 40.0894 -108.4161 273° West 452 520 38,000  Level Denver Center
05:14PM 40.0961 -108.5708 273° West 449 517 38,000  Level Denver Center
05:15PM 40.1031 -108.7542 273° West 454 522 38,000  Level Denver Center
05:15PM 40.1086 -108.8842 273° West 454 522 38,000  Level Salt Lake Center
05:16PM 40.1142 -109.0403 273° West 454 522 38,000  Level Salt Lake Center
05:18PM 40.1211 -109.2500 273° West 454 522 38,000 -300 Level Denver Center
05:20PM 40.1331 -109.5939 273° West 457 526 37,200 -480 Descending Denver Center
05:21PM 40.1372 -109.7272 272° West 459 528 36,800 -540 Descending Salt Lake Center
05:22PM 40.1425 -109.8842 273° West 455 524 36,300 -540 Descending Salt Lake Center
05:23PM 40.1472 -110.0689 272° West 456 525 35,700 -540 Descending Salt Lake Center
05:25PM 40.1569 -110.4117 272° West 456 525 34,700 -1,800 Descending Salt Lake Center
05:27PM 40.1568 -110.6964 274° West  Level FlightAware Approximate
05:28PM 40.1675 -110.9133 274° West 461 531 26,600  Level Salt Lake Center
05:29PM 40.1728 -111.0936 272° West 450 518 23,400 -2,760 Descending Salt Lake Center
05:31PM 40.1783 -111.4056 271° West 427 491 18,200 -2,280 Descending Salt Lake Center
05:31PM 40.1722 -111.4683 263° West 417 480 18,000 -300 Descending Salt Lake Center
05:32PM 40.1794 -111.5419 277° West 385 443 17,900 -900 Descending Salt Lake Center
05:33PM 40.1772 -111.6522 269° West 337 388 16,700 -1,440 Descending Salt Lake Center
05:34PM 40.2311 -111.7603 303° West 321 369 15,200 -960 Descending Salt Lake Center
05:35PM 40.2894 -111.8361 315° West 291 335 14,700 -840 Descending Salt Lake Center
05:36PM 40.3378 -111.8733 330° Northwest 268 308 13,700 -1,080 Descending Salt Lake Center
05:36PM 40.3544 -111.8767 351° North 269 310 13,500 -720 Descending Salt Lake Center
05:37PM 40.3861 -111.9328 307° West 237 273 13,000 -360 Descending Salt Lake Center
05:38PM 40.4397 -111.9428 352° North 247 284 13,000  Level Salt Lake Center
05:38PM 40.4708 -111.9319 15° North 244 281 13,000 -1,320 Level Salt Lake Center
05:39PM 40.5339 -111.9392 355° North 247 284 11,200 -1,800 Descending Salt Lake Center
05:40PM 40.5733 -111.9428 356° North 233 268 10,200 -1,620 Descending Salt Lake Center
05:41PM 40.6669 -111.9508 356° North 232 267 7,800 -1,680 Descending Salt Lake Center
05:42PM 40.6978 -111.9625 344° North 203 234 6,800 -1,980 Descending Salt Lake Center
05:42PM 40.7217 -111.9631 359° North 201 231 5,800 -1,560 Descending Salt Lake Center
05:43PM 40.7697 -111.9619 North 177 204 4,400 -1,380 Descending Salt Lake Center